ADDS METAR Data INFO
IDs: Format: Raw Decoded Include TAF

Data at: 0317 UTC 21 Sep 2017

KPWG 210256Z AUTO 14011KT 10SM CLR 29/22 A2989 RMK AO2 SLP122 T02890217 51016
KPWG 210156Z AUTO 15008KT 10SM CLR 30/21 A2987 RMK AO2 SLP118 T03000211
KPWG 210056Z AUTO 16009KT 10SM CLR 31/21 A2986 RMK AO2 SLP112 T03110211
KPWG 202356Z AUTO 16014KT 10SM CLR 33/21 A2984 RMK AO2 SLP105 T03330211 10367 20333 53001
KPWG 202256Z AUTO 16015KT 10SM CLR 35/22 A2983 RMK AO2 SLP102 T03500217
KPWG 202156Z AUTO 15016KT 10SM CLR 36/22 A2983 RMK AO2 SLP100 T03610217
KPWG 202056Z AUTO 17017G22KT 10SM CLR 36/22 A2983 RMK AO2 SLP103 T03560222 56023
KPWG 201956Z AUTO 17012G18KT 10SM CLR 36/22 A2985 RMK AO2 SLP110 T03560222
KPWG 201856Z AUTO 17018G23KT 10SM CLR 35/23 A2988 RMK AO2 SLP117 T03500228
KPWG 201756Z AUTO 17015KT 10SM CLR 34/23 A2990 RMK AO2 SLP126 T03440228 10344 20244 58008
KPWG 201656Z AUTO 17015G21KT 10SM FEW031 33/23 A2992 RMK AO2 SLP132 T03280233
KPWG 201556Z AUTO 18012G24KT 10SM FEW025 31/23 A2993 RMK AO2 SLP136 T03110228
KPWG 201509Z AUTO 17019G23KT 10SM SCT019 29/23 A2993 RMK AO2
KPWG 201456Z AUTO 18018G23KT 10SM BKN017 28/23 A2993 RMK AO2 SLP136 T02830228 53003
KPWG 201356Z AUTO 18013KT 10SM BKN015 27/23 A2992 RMK AO2 SLP134 T02670228
KPWG 201354Z AUTO 18014G18KT 10SM BKN015 27/23 A2992 RMK AO2
KPWG 201335Z AUTO 18011KT 10SM FEW017 26/23 A2992 RMK AO2
KPWG 201309Z AUTO 18011KT 10SM OVC018 26/23 A2992 RMK AO2
KPWG 201256Z AUTO 16010KT 10SM BKN014 OVC020 26/23 A2992 RMK AO2 SLP133 T02560228
KPWG 201156Z AUTO 16011KT 10SM BKN012 24/23 A2990 RMK AO2 SLP127 T02440228 10278 20244 53010
KPWG 201139Z AUTO 16007KT 10SM BKN012 24/23 A2989 RMK AO2
KPWG 201123Z AUTO 16011KT 10SM SCT014 25/23 A2988 RMK AO2
KPWG 201056Z AUTO 17011KT 10SM BKN014 25/23 A2988 RMK AO2 SLP119 T02500228
KPWG 201037Z AUTO 17011KT 10SM BKN012 25/23 A2988 RMK AO2
KPWG 200956Z AUTO 17009KT 10SM CLR 24/23 A2988 RMK AO2 SLP118 T02440228
KPWG 200856Z AUTO 17011KT 10SM CLR 25/22 A2987 RMK AO2 SLP116 T02500222 50000
KPWG 200756Z AUTO 18012KT 10SM CLR 26/22 A2987 RMK AO2 SLP117 T02610222
KPWG 200656Z AUTO 19010KT 10SM CLR 27/22 A2988 RMK AO2 SLP118 T02670222
KPWG 200556Z AUTO 17010KT 10SM CLR 28/22 A2987 RMK AO2 SLP114 T02780222 10317 20278 403610228 50000
KPWG 200456Z AUTO 16010KT 10SM CLR 28/22 A2987 RMK AO2 SLP114 T02830217
KPWG 200356Z AUTO 14006KT 10SM CLR 29/22 A2987 RMK AO2 SLP116 T02890217
KPWG 200256Z AUTO 15007KT 10SM CLR 29/22 A2987 RMK AO2 SLP116 T02940217 53020
KPWG 200156Z AUTO 15008G16KT 10SM CLR 30/22 A2983 RMK AO2 SLP102 T03000217
KPWG 200056Z AUTO 16015KT 10SM CLR 31/21 A2979 RMK AO2 SLP092 T03060211
KPWG 192356Z AUTO 17017KT 10SM CLR 32/22 A2981 RMK AO2 SLP096 T03170222 10361 20317 56007
KPWG 192256Z AUTO 18014G20KT 10SM CLR 33/21 A2982 RMK AO2 SLP099 T03330211
KPWG 192156Z AUTO 18011G18KT 10SM FEW060 36/21 A2980 RMK AO2 SLP094 T03610211
KPWG 192056Z AUTO 18014G18KT 10SM FEW050 35/21 A2983 RMK AO2 SLP103 T03500211 57030
KPWG 191956Z AUTO 18014G22KT 10SM BKN050 36/22 A2986 RMK AO2 SLP113 T03560217
KPWG 191856Z AUTO 19013G18KT 10SM CLR 36/22 A2989 RMK AO2 TSB04E45 SLP123 T03560222
KPWG 191815Z AUTO 19014G19KT 10SM TS SCT039 34/23 A2991 RMK AO2 LTG DSNT NE TSB04
KPWG 191756Z AUTO 17014KT 10SM SCT039 34/22 A2992 RMK AO2 SLP133 T03390222 10339 20233 58013
KPWG 191656Z AUTO 18013G17KT 10SM BKN032 33/23 A2994 RMK AO2 TSB12E27 SLP142 T03280228
KPWG 191637Z AUTO 21011G19KT 10SM BKN030 32/23 A2995 RMK AO2 TSB12E27
KPWG 191623Z AUTO 17017G20KT 10SM VCTS BKN028 31/23 A2995 RMK AO2 TSB12
KPWG 191556Z AUTO 18015G22KT 10SM BKN026 31/23 A2995 RMK AO2 SLP144 T03110228
KPWG 191520Z AUTO 18017G23KT 10SM BKN024 29/23 A2996 RMK AO2